sensor_id;sensor_type;location;lat;lon;timestamp;P1;durP1;ratioP1;P2;durP2;ratioP2
27558;SDS011;15002;52.028;5.670;2023-05-07T00:01:38;10.10;;;8.85;;
27558;SDS011;15002;52.028;5.670;2023-05-07T00:04:04;11.07;;;9.73;;
27558;SDS011;15002;52.028;5.670;2023-05-07T00:06:30;13.60;;;9.43;;
27558;SDS011;15002;52.028;5.670;2023-05-07T00:08:57;11.15;;;9.13;;
27558;SDS011;15002;52.028;5.670;2023-05-07T00:11:24;13.05;;;9.55;;
27558;SDS011;15002;52.028;5.670;2023-05-07T00:13:50;11.70;;;9.55;;
27558;SDS011;15002;52.028;5.670;2023-05-07T00:16:16;13.27;;;9.73;;
27558;SDS011;15002;52.028;5.670;2023-05-07T00:18:42;9.95;;;8.88;;
27558;SDS011;15002;52.028;5.670;2023-05-07T00:21:07;10.50;;;9.40;;
27558;SDS011;15002;52.028;5.670;2023-05-07T00:23:33;12.30;;;10.02;;
27558;SDS011;15002;52.028;5.670;2023-05-07T00:25:58;11.93;;;9.50;;
27558;SDS011;15002;52.028;5.670;2023-05-07T00:28:24;15.32;;;9.25;;
27558;SDS011;15002;52.028;5.670;2023-05-07T00:30:50;12.88;;;9.20;;
27558;SDS011;15002;52.028;5.670;2023-05-07T00:33:15;12.85;;;9.10;;
27558;SDS011;15002;52.028;5.670;2023-05-07T00:35:41;11.02;;;9.52;;
27558;SDS011;15002;52.028;5.670;2023-05-07T00:38:07;10.95;;;9.32;;
27558;SDS011;15002;52.028;5.670;2023-05-07T00:40:33;12.23;;;9.55;;
27558;SDS011;15002;52.028;5.670;2023-05-07T00:42:59;10.15;;;9.13;;
27558;SDS011;15002;52.028;5.670;2023-05-07T00:45:27;10.95;;;9.65;;
27558;SDS011;15002;52.028;5.670;2023-05-07T00:47:58;13.05;;;9.73;;
27558;SDS011;15002;52.028;5.670;2023-05-07T00:50:25;11.82;;;9.55;;
27558;SDS011;15002;52.028;5.670;2023-05-07T00:52:52;13.68;;;9.82;;
27558;SDS011;15002;52.028;5.670;2023-05-07T00:55:18;11.60;;;10.23;;
27558;SDS011;15002;52.028;5.670;2023-05-07T00:57:45;13.82;;;10.15;;
27558;SDS011;15002;52.028;5.670;2023-05-07T01:00:11;12.70;;;10.05;;
27558;SDS011;15002;52.028;5.670;2023-05-07T01:02:40;14.15;;;11.30;;
27558;SDS011;15002;52.028;5.670;2023-05-07T01:05:07;13.77;;;10.48;;
27558;SDS011;15002;52.028;5.670;2023-05-07T01:07:36;14.55;;;10.45;;
27558;SDS011;15002;52.028;5.670;2023-05-07T01:10:03;13.88;;;10.35;;
27558;SDS011;15002;52.028;5.670;2023-05-07T01:12:30;12.43;;;10.95;;
27558;SDS011;15002;52.028;5.670;2023-05-07T01:14:57;16.00;;;11.18;;
27558;SDS011;15002;52.028;5.670;2023-05-07T01:17:23;13.52;;;10.90;;
27558;SDS011;15002;52.028;5.670;2023-05-07T01:19:49;14.00;;;10.88;;
27558;SDS011;15002;52.028;5.670;2023-05-07T01:22:15;13.07;;;10.82;;
27558;SDS011;15002;52.028;5.670;2023-05-07T01:24:43;12.45;;;11.10;;
27558;SDS011;15002;52.028;5.670;2023-05-07T01:27:09;14.48;;;11.02;;
27558;SDS011;15002;52.028;5.670;2023-05-07T01:29:35;14.02;;;11.27;;
27558;SDS011;15002;52.028;5.670;2023-05-07T01:32:00;14.05;;;11.38;;
27558;SDS011;15002;52.028;5.670;2023-05-07T01:34:28;14.82;;;11.63;;
27558;SDS011;15002;52.028;5.670;2023-05-07T01:36:56;15.88;;;11.80;;
27558;SDS011;15002;52.028;5.670;2023-05-07T01:39:27;13.82;;;11.50;;
27558;SDS011;15002;52.028;5.670;2023-05-07T01:41:57;13.30;;;11.38;;
27558;SDS011;15002;52.028;5.670;2023-05-07T01:44:24;13.40;;;11.35;;
27558;SDS011;15002;52.028;5.670;2023-05-07T01:46:51;13.80;;;11.23;;
27558;SDS011;15002;52.028;5.670;2023-05-07T01:49:17;14.50;;;10.90;;
27558;SDS011;15002;52.028;5.670;2023-05-07T01:51:43;13.43;;;12.00;;
27558;SDS011;15002;52.028;5.670;2023-05-07T01:54:09;15.30;;;12.35;;
27558;SDS011;15002;52.028;5.670;2023-05-07T01:56:35;13.98;;;12.20;;
27558;SDS011;15002;52.028;5.670;2023-05-07T01:59:00;16.33;;;12.05;;
27558;SDS011;15002;52.028;5.670;2023-05-07T02:01:27;14.40;;;10.95;;
27558;SDS011;15002;52.028;5.670;2023-05-07T02:03:52;15.25;;;11.43;;
27558;SDS011;15002;52.028;5.670;2023-05-07T02:06:18;15.82;;;11.55;;
27558;SDS011;15002;52.028;5.670;2023-05-07T02:08:44;14.13;;;11.93;;
27558;SDS011;15002;52.028;5.670;2023-05-07T02:11:11;15.23;;;12.15;;
27558;SDS011;15002;52.028;5.670;2023-05-07T02:13:36;13.73;;;12.00;;
27558;SDS011;15002;52.028;5.670;2023-05-07T02:16:02;14.77;;;12.13;;
27558;SDS011;15002;52.028;5.670;2023-05-07T02:18:28;15.20;;;12.18;;
27558;SDS011;15002;52.028;5.670;2023-05-07T02:20:54;16.45;;;13.18;;
27558;SDS011;15002;52.028;5.670;2023-05-07T02:23:20;14.63;;;12.80;;
27558;SDS011;15002;52.028;5.670;2023-05-07T02:25:45;14.70;;;12.35;;
27558;SDS011;15002;52.028;5.670;2023-05-07T02:28:11;15.38;;;12.07;;
27558;SDS011;15002;52.028;5.670;2023-05-07T02:30:37;14.55;;;12.18;;
27558;SDS011;15002;52.028;5.670;2023-05-07T02:33:03;17.08;;;12.43;;
27558;SDS011;15002;52.028;5.670;2023-05-07T02:35:29;15.60;;;12.20;;
27558;SDS011;15002;52.028;5.670;2023-05-07T02:37:55;15.43;;;12.50;;
27558;SDS011;15002;52.028;5.670;2023-05-07T02:40:20;14.30;;;12.45;;
27558;SDS011;15002;52.028;5.670;2023-05-07T02:42:46;16.48;;;12.73;;
27558;SDS011;15002;52.028;5.670;2023-05-07T02:45:12;17.45;;;12.70;;
27558;SDS011;15002;52.028;5.670;2023-05-07T02:47:38;16.00;;;12.80;;
27558;SDS011;15002;52.028;5.670;2023-05-07T02:50:03;16.05;;;12.50;;
27558;SDS011;15002;52.028;5.670;2023-05-07T02:52:29;17.83;;;12.70;;
27558;SDS011;15002;52.028;5.670;2023-05-07T02:54:55;16.42;;;13.05;;
27558;SDS011;15002;52.028;5.670;2023-05-07T02:57:21;15.55;;;12.55;;
27558;SDS011;15002;52.028;5.670;2023-05-07T02:59:46;16.35;;;12.38;;
27558;SDS011;15002;52.028;5.670;2023-05-07T03:02:12;17.77;;;13.75;;
27558;SDS011;15002;52.028;5.670;2023-05-07T03:04:38;16.00;;;13.63;;
27558;SDS011;15002;52.028;5.670;2023-05-07T03:07:04;14.63;;;12.70;;
27558;SDS011;15002;52.028;5.670;2023-05-07T03:09:30;17.60;;;13.20;;
27558;SDS011;15002;52.028;5.670;2023-05-07T03:11:56;16.95;;;13.70;;
27558;SDS011;15002;52.028;5.670;2023-05-07T03:14:22;16.27;;;13.23;;
27558;SDS011;15002;52.028;5.670;2023-05-07T03:16:48;15.63;;;13.55;;
27558;SDS011;15002;52.028;5.670;2023-05-07T03:19:14;21.00;;;14.10;;
27558;SDS011;15002;52.028;5.670;2023-05-07T03:21:40;17.50;;;14.27;;
27558;SDS011;15002;52.028;5.670;2023-05-07T03:24:05;17.33;;;14.73;;
27558;SDS011;15002;52.028;5.670;2023-05-07T03:26:31;16.75;;;14.05;;
27558;SDS011;15002;52.028;5.670;2023-05-07T03:28:57;17.55;;;14.73;;
27558;SDS011;15002;52.028;5.670;2023-05-07T03:31:22;19.17;;;14.85;;
27558;SDS011;15002;52.028;5.670;2023-05-07T03:33:51;20.13;;;14.90;;
27558;SDS011;15002;52.028;5.670;2023-05-07T03:36:19;17.42;;;14.90;;
27558;SDS011;15002;52.028;5.670;2023-05-07T03:38:45;16.98;;;15.18;;
27558;SDS011;15002;52.028;5.670;2023-05-07T03:41:11;17.45;;;14.23;;
27558;SDS011;15002;52.028;5.670;2023-05-07T03:43:37;19.85;;;15.90;;
27558;SDS011;15002;52.028;5.670;2023-05-07T03:46:02;17.42;;;13.77;;
27558;SDS011;15002;52.028;5.670;2023-05-07T03:48:28;19.40;;;14.38;;
27558;SDS011;15002;52.028;5.670;2023-05-07T03:50:54;17.92;;;14.93;;
27558;SDS011;15002;52.028;5.670;2023-05-07T03:53:21;16.90;;;14.50;;
27558;SDS011;15002;52.028;5.670;2023-05-07T03:55:46;20.63;;;14.23;;
27558;SDS011;15002;52.028;5.670;2023-05-07T03:58:12;18.35;;;15.13;;
27558;SDS011;15002;52.028;5.670;2023-05-07T04:00:37;19.90;;;15.13;;
27558;SDS011;15002;52.028;5.670;2023-05-07T04:03:05;20.67;;;15.35;;
27558;SDS011;15002;52.028;5.670;2023-05-07T04:05:31;22.52;;;15.98;;
27558;SDS011;15002;52.028;5.670;2023-05-07T04:07:57;20.88;;;15.70;;
27558;SDS011;15002;52.028;5.670;2023-05-07T04:10:24;22.00;;;15.75;;
27558;SDS011;15002;52.028;5.670;2023-05-07T04:12:50;23.70;;;16.63;;
27558;SDS011;15002;52.028;5.670;2023-05-07T04:15:15;20.55;;;15.73;;
27558;SDS011;15002;52.028;5.670;2023-05-07T04:17:41;20.27;;;15.32;;
27558;SDS011;15002;52.028;5.670;2023-05-07T04:20:08;22.17;;;15.60;;
27558;SDS011;15002;52.028;5.670;2023-05-07T04:22:35;21.70;;;15.13;;
27558;SDS011;15002;52.028;5.670;2023-05-07T04:25:01;21.42;;;15.32;;
27558;SDS011;15002;52.028;5.670;2023-05-07T04:27:27;19.88;;;16.42;;
27558;SDS011;15002;52.028;5.670;2023-05-07T04:29:53;20.80;;;15.45;;
27558;SDS011;15002;52.028;5.670;2023-05-07T04:32:21;18.85;;;14.25;;
27558;SDS011;15002;52.028;5.670;2023-05-07T04:34:47;20.75;;;14.73;;
27558;SDS011;15002;52.028;5.670;2023-05-07T04:37:13;18.20;;;15.88;;
27558;SDS011;15002;52.028;5.670;2023-05-07T04:39:38;19.35;;;15.70;;
27558;SDS011;15002;52.028;5.670;2023-05-07T04:42:04;17.63;;;14.45;;
27558;SDS011;15002;52.028;5.670;2023-05-07T04:44:32;17.17;;;14.85;;
27558;SDS011;15002;52.028;5.670;2023-05-07T04:46:58;20.13;;;15.05;;
27558;SDS011;15002;52.028;5.670;2023-05-07T04:49:23;22.90;;;14.70;;
27558;SDS011;15002;52.028;5.670;2023-05-07T04:51:49;18.35;;;14.45;;
27558;SDS011;15002;52.028;5.670;2023-05-07T04:54:15;22.23;;;14.55;;
27558;SDS011;15002;52.028;5.670;2023-05-07T04:56:40;18.98;;;14.93;;
27558;SDS011;15002;52.028;5.670;2023-05-07T04:59:06;18.67;;;14.70;;
27558;SDS011;15002;52.028;5.670;2023-05-07T05:01:32;19.77;;;15.48;;
27558;SDS011;15002;52.028;5.670;2023-05-07T05:03:58;20.25;;;15.20;;
27558;SDS011;15002;52.028;5.670;2023-05-07T05:06:25;21.90;;;15.82;;
27558;SDS011;15002;52.028;5.670;2023-05-07T05:08:51;20.63;;;15.30;;
27558;SDS011;15002;52.028;5.670;2023-05-07T05:11:16;22.08;;;16.55;;
27558;SDS011;15002;52.028;5.670;2023-05-07T05:13:42;22.85;;;16.38;;
27558;SDS011;15002;52.028;5.670;2023-05-07T05:16:08;20.63;;;15.68;;
27558;SDS011;15002;52.028;5.670;2023-05-07T05:18:34;21.15;;;16.23;;
27558;SDS011;15002;52.028;5.670;2023-05-07T05:20:59;22.95;;;15.93;;
27558;SDS011;15002;52.028;5.670;2023-05-07T05:23:25;21.63;;;16.10;;
27558;SDS011;15002;52.028;5.670;2023-05-07T05:25:55;22.42;;;17.15;;
27558;SDS011;15002;52.028;5.670;2023-05-07T05:28:22;21.13;;;16.67;;
27558;SDS011;15002;52.028;5.670;2023-05-07T05:30:47;22.42;;;16.77;;
27558;SDS011;15002;52.028;5.670;2023-05-07T05:33:13;21.90;;;17.48;;
27558;SDS011;15002;52.028;5.670;2023-05-07T05:35:39;21.55;;;17.15;;
27558;SDS011;15002;52.028;5.670;2023-05-07T05:38:04;22.27;;;17.02;;
27558;SDS011;15002;52.028;5.670;2023-05-07T05:40:30;21.65;;;16.77;;
27558;SDS011;15002;52.028;5.670;2023-05-07T05:42:56;22.58;;;18.02;;
27558;SDS011;15002;52.028;5.670;2023-05-07T05:45:21;23.67;;;17.40;;
27558;SDS011;15002;52.028;5.670;2023-05-07T05:47:47;23.13;;;17.90;;
27558;SDS011;15002;52.028;5.670;2023-05-07T05:50:12;25.52;;;19.15;;
27558;SDS011;15002;52.028;5.670;2023-05-07T05:52:38;23.27;;;18.52;;
27558;SDS011;15002;52.028;5.670;2023-05-07T05:55:04;23.50;;;18.42;;
27558;SDS011;15002;52.028;5.670;2023-05-07T05:57:30;23.73;;;18.60;;
27558;SDS011;15002;52.028;5.670;2023-05-07T05:59:56;21.75;;;18.02;;
27558;SDS011;15002;52.028;5.670;2023-05-07T06:02:21;22.23;;;17.75;;
27558;SDS011;15002;52.028;5.670;2023-05-07T06:04:47;23.00;;;18.10;;
27558;SDS011;15002;52.028;5.670;2023-05-07T06:07:13;25.58;;;17.90;;
27558;SDS011;15002;52.028;5.670;2023-05-07T06:09:38;24.92;;;18.73;;
27558;SDS011;15002;52.028;5.670;2023-05-07T06:12:04;21.73;;;16.55;;
27558;SDS011;15002;52.028;5.670;2023-05-07T06:14:30;23.10;;;17.17;;
27558;SDS011;15002;52.028;5.670;2023-05-07T06:16:56;21.02;;;17.73;;
27558;SDS011;15002;52.028;5.670;2023-05-07T06:19:22;21.45;;;16.55;;
27558;SDS011;15002;52.028;5.670;2023-05-07T06:21:49;23.23;;;17.80;;
27558;SDS011;15002;52.028;5.670;2023-05-07T06:24:15;22.85;;;18.25;;
27558;SDS011;15002;52.028;5.670;2023-05-07T06:26:40;23.30;;;18.17;;
27558;SDS011;15002;52.028;5.670;2023-05-07T06:29:06;21.48;;;16.30;;
27558;SDS011;15002;52.028;5.670;2023-05-07T06:31:32;18.60;;;16.17;;
27558;SDS011;15002;52.028;5.670;2023-05-07T06:33:57;22.08;;;16.45;;
27558;SDS011;15002;52.028;5.670;2023-05-07T06:36:24;21.60;;;17.48;;
27558;SDS011;15002;52.028;5.670;2023-05-07T06:38:49;19.73;;;16.75;;
27558;SDS011;15002;52.028;5.670;2023-05-07T06:41:15;22.00;;;17.75;;
27558;SDS011;15002;52.028;5.670;2023-05-07T06:43:41;19.13;;;16.02;;
27558;SDS011;15002;52.028;5.670;2023-05-07T06:46:06;20.25;;;16.63;;
27558;SDS011;15002;52.028;5.670;2023-05-07T06:48:32;18.95;;;16.52;;
27558;SDS011;15002;52.028;5.670;2023-05-07T06:50:58;21.75;;;15.63;;
27558;SDS011;15002;52.028;5.670;2023-05-07T06:53:24;19.35;;;16.38;;
27558;SDS011;15002;52.028;5.670;2023-05-07T06:55:50;22.45;;;16.38;;
27558;SDS011;15002;52.028;5.670;2023-05-07T06:58:17;19.23;;;16.50;;
27558;SDS011;15002;52.028;5.670;2023-05-07T07:00:42;19.17;;;16.08;;
27558;SDS011;15002;52.028;5.670;2023-05-07T07:03:08;20.95;;;16.52;;
27558;SDS011;15002;52.028;5.670;2023-05-07T07:05:33;22.65;;;17.35;;
27558;SDS011;15002;52.028;5.670;2023-05-07T07:07:59;20.20;;;16.83;;
27558;SDS011;15002;52.028;5.670;2023-05-07T07:10:25;21.70;;;17.27;;
27558;SDS011;15002;52.028;5.670;2023-05-07T07:12:50;19.05;;;16.67;;
27558;SDS011;15002;52.028;5.670;2023-05-07T07:15:17;18.95;;;16.45;;
27558;SDS011;15002;52.028;5.670;2023-05-07T07:17:45;21.10;;;16.90;;
27558;SDS011;15002;52.028;5.670;2023-05-07T07:20:11;20.73;;;16.88;;
27558;SDS011;15002;52.028;5.670;2023-05-07T07:22:37;19.77;;;16.33;;
27558;SDS011;15002;52.028;5.670;2023-05-07T07:25:02;20.10;;;16.23;;
27558;SDS011;15002;52.028;5.670;2023-05-07T07:27:28;20.27;;;16.50;;
27558;SDS011;15002;52.028;5.670;2023-05-07T07:29:54;17.48;;;15.50;;
27558;SDS011;15002;52.028;5.670;2023-05-07T07:32:20;20.30;;;17.08;;
27558;SDS011;15002;52.028;5.670;2023-05-07T07:34:45;21.70;;;17.63;;
27558;SDS011;15002;52.028;5.670;2023-05-07T07:37:11;20.38;;;17.20;;
27558;SDS011;15002;52.028;5.670;2023-05-07T07:39:37;19.17;;;16.60;;
27558;SDS011;15002;52.028;5.670;2023-05-07T07:42:02;20.27;;;17.75;;
27558;SDS011;15002;52.028;5.670;2023-05-07T07:44:28;20.65;;;16.58;;
27558;SDS011;15002;52.028;5.670;2023-05-07T07:46:54;21.65;;;17.70;;
27558;SDS011;15002;52.028;5.670;2023-05-07T07:49:20;21.40;;;18.50;;
27558;SDS011;15002;52.028;5.670;2023-05-07T07:51:45;21.77;;;18.33;;
27558;SDS011;15002;52.028;5.670;2023-05-07T07:54:11;20.75;;;18.50;;
27558;SDS011;15002;52.028;5.670;2023-05-07T07:56:37;24.52;;;18.70;;
27558;SDS011;15002;52.028;5.670;2023-05-07T07:59:03;24.58;;;19.38;;
27558;SDS011;15002;52.028;5.670;2023-05-07T08:01:29;23.13;;;19.35;;
27558;SDS011;15002;52.028;5.670;2023-05-07T08:03:55;21.83;;;18.70;;
27558;SDS011;15002;52.028;5.670;2023-05-07T08:06:23;21.83;;;18.67;;
27558;SDS011;15002;52.028;5.670;2023-05-07T08:08:50;23.75;;;19.80;;
27558;SDS011;15002;52.028;5.670;2023-05-07T08:11:16;22.90;;;19.33;;
27558;SDS011;15002;52.028;5.670;2023-05-07T08:13:42;24.30;;;20.02;;
27558;SDS011;15002;52.028;5.670;2023-05-07T08:16:08;23.63;;;19.60;;
27558;SDS011;15002;52.028;5.670;2023-05-07T08:18:34;22.35;;;19.23;;
27558;SDS011;15002;52.028;5.670;2023-05-07T08:21:00;24.90;;;19.58;;
27558;SDS011;15002;52.028;5.670;2023-05-07T08:23:26;24.35;;;20.48;;
27558;SDS011;15002;52.028;5.670;2023-05-07T08:25:51;22.90;;;20.05;;
27558;SDS011;15002;52.028;5.670;2023-05-07T08:28:18;24.70;;;20.58;;
27558;SDS011;15002;52.028;5.670;2023-05-07T08:30:44;25.52;;;20.65;;
27558;SDS011;15002;52.028;5.670;2023-05-07T08:33:10;23.17;;;20.15;;
27558;SDS011;15002;52.028;5.670;2023-05-07T08:35:36;23.08;;;19.75;;
27558;SDS011;15002;52.028;5.670;2023-05-07T08:38:01;25.27;;;19.85;;
27558;SDS011;15002;52.028;5.670;2023-05-07T08:40:27;25.45;;;20.10;;
27558;SDS011;15002;52.028;5.670;2023-05-07T08:42:53;24.73;;;19.60;;
27558;SDS011;15002;52.028;5.670;2023-05-07T08:45:21;23.60;;;19.02;;
27558;SDS011;15002;52.028;5.670;2023-05-07T08:47:50;24.60;;;19.58;;
27558;SDS011;15002;52.028;5.670;2023-05-07T08:50:19;22.92;;;20.25;;
27558;SDS011;15002;52.028;5.670;2023-05-07T08:52:45;26.75;;;20.92;;
27558;SDS011;15002;52.028;5.670;2023-05-07T08:55:12;26.30;;;20.38;;
27558;SDS011;15002;52.028;5.670;2023-05-07T08:57:38;25.40;;;21.08;;
27558;SDS011;15002;52.028;5.670;2023-05-07T09:00:04;26.23;;;21.55;;
27558;SDS011;15002;52.028;5.670;2023-05-07T09:02:31;27.88;;;21.55;;
27558;SDS011;15002;52.028;5.670;2023-05-07T09:04:57;25.90;;;20.67;;
27558;SDS011;15002;52.028;5.670;2023-05-07T09:07:23;25.48;;;19.33;;
27558;SDS011;15002;52.028;5.670;2023-05-07T09:09:50;28.52;;;20.42;;
27558;SDS011;15002;52.028;5.670;2023-05-07T09:12:17;23.00;;;20.00;;
27558;SDS011;15002;52.028;5.670;2023-05-07T09:14:43;23.90;;;19.85;;
27558;SDS011;15002;52.028;5.670;2023-05-07T09:17:10;21.88;;;19.08;;
27558;SDS011;15002;52.028;5.670;2023-05-07T09:19:36;22.55;;;17.25;;
27558;SDS011;15002;52.028;5.670;2023-05-07T09:22:02;21.38;;;17.35;;
27558;SDS011;15002;52.028;5.670;2023-05-07T09:24:29;21.45;;;15.63;;
27558;SDS011;15002;52.028;5.670;2023-05-07T09:26:59;21.00;;;16.52;;
27558;SDS011;15002;52.028;5.670;2023-05-07T09:29:26;23.88;;;15.90;;
27558;SDS011;15002;52.028;5.670;2023-05-07T09:31:54;20.27;;;15.50;;
27558;SDS011;15002;52.028;5.670;2023-05-07T09:34:20;17.75;;;14.38;;
27558;SDS011;15002;52.028;5.670;2023-05-07T09:36:45;18.95;;;14.55;;
27558;SDS011;15002;52.028;5.670;2023-05-07T09:39:12;17.10;;;13.63;;
27558;SDS011;15002;52.028;5.670;2023-05-07T09:41:45;14.77;;;12.95;;
27558;SDS011;15002;52.028;5.670;2023-05-07T09:44:12;17.90;;;13.30;;
27558;SDS011;15002;52.028;5.670;2023-05-07T09:46:38;14.90;;;12.35;;
27558;SDS011;15002;52.028;5.670;2023-05-07T09:49:07;15.75;;;13.77;;
27558;SDS011;15002;52.028;5.670;2023-05-07T09:51:43;17.70;;;14.18;;
27558;SDS011;15002;52.028;5.670;2023-05-07T09:54:14;20.73;;;13.25;;
27558;SDS011;15002;52.028;5.670;2023-05-07T09:56:40;16.38;;;13.30;;
27558;SDS011;15002;52.028;5.670;2023-05-07T09:59:07;14.65;;;12.48;;
27558;SDS011;15002;52.028;5.670;2023-05-07T10:01:35;19.88;;;12.52;;
27558;SDS011;15002;52.028;5.670;2023-05-07T10:04:02;14.82;;;12.18;;
27558;SDS011;15002;52.028;5.670;2023-05-07T10:06:29;12.98;;;9.90;;
27558;SDS011;15002;52.028;5.670;2023-05-07T10:08:55;13.90;;;9.88;;
27558;SDS011;15002;52.028;5.670;2023-05-07T10:11:22;15.88;;;9.65;;
27558;SDS011;15002;52.028;5.670;2023-05-07T10:13:48;12.15;;;9.48;;
27558;SDS011;15002;52.028;5.670;2023-05-07T10:16:14;11.88;;;9.43;;
27558;SDS011;15002;52.028;5.670;2023-05-07T10:18:40;11.15;;;8.45;;
27558;SDS011;15002;52.028;5.670;2023-05-07T10:21:19;9.93;;;8.60;;
27558;SDS011;15002;52.028;5.670;2023-05-07T10:23:50;10.15;;;7.72;;
27558;SDS011;15002;52.028;5.670;2023-05-07T10:26:22;11.45;;;8.63;;
27558;SDS011;15002;52.028;5.670;2023-05-07T10:28:50;10.88;;;8.13;;
27558;SDS011;15002;52.028;5.670;2023-05-07T10:34:23;8.90;;;6.40;;
27558;SDS011;15002;52.028;5.670;2023-05-07T10:36:53;8.85;;;6.75;;
27558;SDS011;15002;52.028;5.670;2023-05-07T10:39:20;10.05;;;6.78;;
27558;SDS011;15002;52.028;5.670;2023-05-07T10:41:47;8.43;;;6.43;;
27558;SDS011;15002;52.028;5.670;2023-05-07T10:44:24;8.68;;;6.25;;
27558;SDS011;15002;52.028;5.670;2023-05-07T10:47:07;8.52;;;6.13;;
27558;SDS011;15002;52.028;5.670;2023-05-07T10:52:13;9.00;;;6.63;;
27558;SDS011;15002;52.028;5.670;2023-05-07T10:54:43;9.70;;;7.10;;
27558;SDS011;15002;52.028;5.670;2023-05-07T10:59:57;9.25;;;6.10;;
27558;SDS011;15002;52.028;5.670;2023-05-07T11:02:22;9.45;;;6.38;;
27558;SDS011;15002;52.028;5.670;2023-05-07T11:07:55;8.32;;;6.55;;
27558;SDS011;15002;52.028;5.670;2023-05-07T11:10:21;8.77;;;6.20;;
27558;SDS011;15002;52.028;5.670;2023-05-07T11:12:47;9.73;;;7.05;;
27558;SDS011;15002;52.028;5.670;2023-05-07T11:15:14;9.10;;;6.18;;
27558;SDS011;15002;52.028;5.670;2023-05-07T11:17:58;8.43;;;6.22;;
27558;SDS011;15002;52.028;5.670;2023-05-07T11:28:30;7.25;;;4.78;;
27558;SDS011;15002;52.028;5.670;2023-05-07T11:31:01;5.35;;;4.43;;
27558;SDS011;15002;52.028;5.670;2023-05-07T11:33:27;6.85;;;3.95;;
27558;SDS011;15002;52.028;5.670;2023-05-07T11:35:54;4.85;;;4.20;;
27558;SDS011;15002;52.028;5.670;2023-05-07T11:38:19;7.72;;;4.78;;
27558;SDS011;15002;52.028;5.670;2023-05-07T11:40:52;6.53;;;4.47;;
27558;SDS011;15002;52.028;5.670;2023-05-07T11:43:18;8.20;;;4.10;;
27558;SDS011;15002;52.028;5.670;2023-05-07T11:45:44;7.20;;;3.65;;
27558;SDS011;15002;52.028;5.670;2023-05-07T11:48:12;4.68;;;3.58;;
27558;SDS011;15002;52.028;5.670;2023-05-07T11:53:43;7.75;;;4.90;;
27558;SDS011;15002;52.028;5.670;2023-05-07T11:56:10;7.72;;;4.95;;
27558;SDS011;15002;52.028;5.670;2023-05-07T11:58:37;5.95;;;4.18;;
27558;SDS011;15002;52.028;5.670;2023-05-07T12:01:06;5.53;;;4.60;;
27558;SDS011;15002;52.028;5.670;2023-05-07T12:03:34;8.15;;;4.35;;
27558;SDS011;15002;52.028;5.670;2023-05-07T12:06:01;6.40;;;4.95;;
27558;SDS011;15002;52.028;5.670;2023-05-07T12:08:27;7.47;;;6.30;;
27558;SDS011;15002;52.028;5.670;2023-05-07T12:10:53;7.68;;;6.72;;
27558;SDS011;15002;52.028;5.670;2023-05-07T12:13:21;9.35;;;6.03;;
27558;SDS011;15002;52.028;5.670;2023-05-07T12:15:54;8.85;;;6.13;;
27558;SDS011;15002;52.028;5.670;2023-05-07T12:18:21;8.70;;;6.22;;
27558;SDS011;15002;52.028;5.670;2023-05-07T12:20:48;9.40;;;7.28;;
27558;SDS011;15002;52.028;5.670;2023-05-07T12:23:14;9.02;;;6.97;;
27558;SDS011;15002;52.028;5.670;2023-05-07T12:25:41;11.20;;;9.00;;
27558;SDS011;15002;52.028;5.670;2023-05-07T12:28:14;13.98;;;9.02;;
27558;SDS011;15002;52.028;5.670;2023-05-07T12:30:41;10.43;;;9.25;;
27558;SDS011;15002;52.028;5.670;2023-05-07T12:33:08;10.43;;;8.55;;
27558;SDS011;15002;52.028;5.670;2023-05-07T12:35:39;10.77;;;9.00;;
27558;SDS011;15002;52.028;5.670;2023-05-07T12:38:24;12.02;;;8.65;;
27558;SDS011;15002;52.028;5.670;2023-05-07T12:40:50;9.60;;;8.40;;
27558;SDS011;15002;52.028;5.670;2023-05-07T12:43:20;8.68;;;7.68;;
27558;SDS011;15002;52.028;5.670;2023-05-07T12:45:49;9.27;;;7.50;;
27558;SDS011;15002;52.028;5.670;2023-05-07T12:48:16;8.98;;;6.30;;
27558;SDS011;15002;52.028;5.670;2023-05-07T12:50:42;8.35;;;6.60;;
27558;SDS011;15002;52.028;5.670;2023-05-07T12:53:09;7.72;;;5.47;;
27558;SDS011;15002;52.028;5.670;2023-05-07T12:55:43;6.63;;;5.38;;
27558;SDS011;15002;52.028;5.670;2023-05-07T12:58:20;7.88;;;4.68;;
27558;SDS011;15002;52.028;5.670;2023-05-07T13:00:50;11.35;;;5.72;;
27558;SDS011;15002;52.028;5.670;2023-05-07T13:03:26;9.43;;;6.13;;
27558;SDS011;15002;52.028;5.670;2023-05-07T13:05:54;7.13;;;5.70;;
27558;SDS011;15002;52.028;5.670;2023-05-07T13:08:25;6.55;;;4.55;;
27558;SDS011;15002;52.028;5.670;2023-05-07T13:10:51;8.63;;;4.07;;
27558;SDS011;15002;52.028;5.670;2023-05-07T13:13:18;7.60;;;4.78;;
27558;SDS011;15002;52.028;5.670;2023-05-07T13:15:45;6.75;;;4.93;;
27558;SDS011;15002;52.028;5.670;2023-05-07T13:18:10;11.20;;;5.75;;
27558;SDS011;15002;52.028;5.670;2023-05-07T13:20:36;6.80;;;5.90;;
27558;SDS011;15002;52.028;5.670;2023-05-07T13:23:02;8.82;;;5.57;;
27558;SDS011;15002;52.028;5.670;2023-05-07T13:25:29;7.32;;;6.47;;
27558;SDS011;15002;52.028;5.670;2023-05-07T13:27:56;7.00;;;6.15;;
27558;SDS011;15002;52.028;5.670;2023-05-07T13:30:22;8.07;;;6.65;;
27558;SDS011;15002;52.028;5.670;2023-05-07T13:32:48;11.57;;;8.93;;
27558;SDS011;15002;52.028;5.670;2023-05-07T13:35:15;8.35;;;7.53;;
27558;SDS011;15002;52.028;5.670;2023-05-07T13:37:41;9.68;;;7.43;;
27558;SDS011;15002;52.028;5.670;2023-05-07T13:40:07;7.75;;;6.95;;
27558;SDS011;15002;52.028;5.670;2023-05-07T13:42:33;8.35;;;7.55;;
27558;SDS011;15002;52.028;5.670;2023-05-07T13:44:58;9.35;;;8.32;;
27558;SDS011;15002;52.028;5.670;2023-05-07T13:47:24;12.65;;;10.73;;
27558;SDS011;15002;52.028;5.670;2023-05-07T13:49:49;14.48;;;12.95;;
27558;SDS011;15002;52.028;5.670;2023-05-07T13:52:16;13.30;;;11.90;;
27558;SDS011;15002;52.028;5.670;2023-05-07T13:54:42;15.05;;;11.80;;
27558;SDS011;15002;52.028;5.670;2023-05-07T13:57:07;15.68;;;12.20;;
27558;SDS011;15002;52.028;5.670;2023-05-07T13:59:33;12.43;;;11.10;;
27558;SDS011;15002;52.028;5.670;2023-05-07T14:01:59;14.38;;;11.45;;
27558;SDS011;15002;52.028;5.670;2023-05-07T14:04:25;12.13;;;10.70;;
27558;SDS011;15002;52.028;5.670;2023-05-07T14:06:50;10.82;;;9.50;;
27558;SDS011;15002;52.028;5.670;2023-05-07T14:09:16;10.13;;;8.13;;
27558;SDS011;15002;52.028;5.670;2023-05-07T14:11:42;11.52;;;8.75;;
27558;SDS011;15002;52.028;5.670;2023-05-07T14:14:07;12.05;;;8.95;;
27558;SDS011;15002;52.028;5.670;2023-05-07T14:16:35;14.07;;;10.15;;
27558;SDS011;15002;52.028;5.670;2023-05-07T14:19:01;13.65;;;10.20;;
27558;SDS011;15002;52.028;5.670;2023-05-07T14:21:27;14.48;;;12.20;;
27558;SDS011;15002;52.028;5.670;2023-05-07T14:23:53;14.05;;;10.98;;
27558;SDS011;15002;52.028;5.670;2023-05-07T14:26:18;10.32;;;9.23;;
27558;SDS011;15002;52.028;5.670;2023-05-07T14:28:45;13.07;;;11.32;;
27558;SDS011;15002;52.028;5.670;2023-05-07T14:31:11;15.30;;;11.00;;
27558;SDS011;15002;52.028;5.670;2023-05-07T14:33:37;12.65;;;9.75;;
27558;SDS011;15002;52.028;5.670;2023-05-07T14:36:03;11.00;;;9.82;;
27558;SDS011;15002;52.028;5.670;2023-05-07T14:38:29;13.13;;;11.73;;
27558;SDS011;15002;52.028;5.670;2023-05-07T14:40:57;17.13;;;13.02;;
27558;SDS011;15002;52.028;5.670;2023-05-07T14:43:23;17.73;;;14.35;;
27558;SDS011;15002;52.028;5.670;2023-05-07T14:45:49;18.05;;;13.60;;
27558;SDS011;15002;52.028;5.670;2023-05-07T14:48:15;17.67;;;14.13;;